Time;durP1;ratioP1;P1;durP2;ratioP2;P2;SDS_P1;SDS_P2;PMS_P1;PMS_P2;Temp;Humidity;BMP_temperature;BMP_pressure;BME280_temperature;BME280_humidity;BME280_pressure;Samples;Min_cycle;Max_cycle;Signal;HPM_P1;HPM_P2
2023/04/09 00:01:06;;;;;;;2.28;1.70;;;13.90;77.20;;;;;;10945231;32;20045;-70
2023/04/09 00:07:09;;;;;;;1.87;1.48;;;13.90;78.10;;;;;;10931221;32;20060;-70
2023/04/09 00:13:11;;;;;;;2.47;2.17;;;14.00;78.00;;;;;;10929419;32;20035;-70
2023/04/09 00:19:13;;;;;;;1.67;1.58;;;14.10;77.90;;;;;;10944724;32;20027;-70
2023/04/09 00:25:15;;;;;;;2.15;1.62;;;14.10;78.10;;;;;;10944380;32;20392;-70
2023/04/09 00:31:17;;;;;;;1.73;1.60;;;14.00;78.10;;;;;;10943584;32;20023;-70
2023/04/09 00:37:19;;;;;;;2.75;2.15;;;14.00;78.30;;;;;;10943464;32;20019;-70
2023/04/09 00:43:22;;;;;;;2.92;2.20;;;14.00;78.40;;;;;;10943852;32;20045;-70
2023/04/09 00:49:25;;;;;;;3.67;2.83;;;13.80;78.60;;;;;;10942894;32;20306;-71
2023/04/09 00:55:28;;;;;;;4.60;1.95;;;13.90;79.20;;;;;;10943348;32;20023;-71
2023/04/09 01:01:30;;;;;;;3.10;2.60;;;14.00;79.60;;;;;;10943250;32;20042;-71
2023/04/09 01:07:53;;;;;;;3.55;2.72;;;13.90;79.50;;;;;;10943162;32;20204;-72
2023/04/09 01:14:22;;;;;;;2.22;1.50;;;13.90;79.90;;;;;;10942357;32;20088;-71
2023/04/09 01:20:42;;;;;;;2.25;1.40;;;13.80;80.00;;;;;;10942698;32;20019;-71
2023/04/09 01:27:03;;;;;;;2.20;1.37;;;13.80;79.90;;;;;;10943174;32;20389;-71
2023/04/09 01:33:07;;;;;;;1.80;1.23;;;13.70;79.90;;;;;;10928491;32;20035;-70
2023/04/09 01:39:09;;;;;;;3.30;2.20;;;13.70;79.80;;;;;;10927372;32;20035;-70
2023/04/09 01:45:13;;;;;;;2.97;2.12;;;13.70;79.60;;;;;;10941374;32;20022;-70
2023/04/09 01:51:16;;;;;;;7.28;4.75;;;13.70;79.50;;;;;;10936720;32;20376;-70
2023/04/09 01:57:18;;;;;;;6.78;4.55;;;13.60;79.40;;;;;;10940774;32;20054;-70
2023/04/09 02:03:27;;;;;;;6.05;4.87;;;13.60;79.40;;;;;;10940666;32;20019;-70
2023/04/09 02:09:32;;;;;;;6.97;4.50;;;13.50;79.20;;;;;;10941829;32;20023;-70
2023/04/09 02:15:36;;;;;;;9.02;7.62;;;13.30;79.20;;;;;;10941609;32;20018;-70
2023/04/09 02:21:39;;;;;;;6.35;4.25;;;13.20;79.20;;;;;;10926271;32;20330;-71
2023/04/09 02:27:41;;;;;;;10.63;5.05;;;13.20;79.30;;;;;;10936834;32;20045;-70
2023/04/09 02:33:43;;;;;;;7.10;4.95;;;13.20;79.20;;;;;;10941908;32;20031;-70
2023/04/09 02:39:45;;;;;;;5.60;4.72;;;13.20;79.50;;;;;;10948160;32;20058;-71
2023/04/09 02:45:47;;;;;;;4.25;2.87;;;13.20;79.70;;;;;;10947886;32;20019;-70
2023/04/09 02:51:49;;;;;;;4.68;3.58;;;13.20;79.60;;;;;;10947073;32;20023;-71
2023/04/09 02:57:51;;;;;;;4.30;2.83;;;13.30;79.40;;;;;;10943720;32;20027;-70
2023/04/09 03:03:53;;;;;;;4.03;3.17;;;13.30;79.30;;;;;;10947381;32;20045;-70
2023/04/09 03:09:55;;;;;;;3.80;2.90;;;13.30;79.40;;;;;;10928885;32;20093;-71
2023/04/09 03:15:58;;;;;;;6.12;4.37;;;13.30;79.20;;;;;;10946363;32;20069;-70
2023/04/09 03:22:01;;;;;;;4.57;3.45;;;13.20;79.50;;;;;;10946693;32;20034;-71
2023/04/09 03:28:04;;;;;;;4.90;3.55;;;13.30;79.60;;;;;;10932147;32;20046;-71
2023/04/09 03:34:07;;;;;;;5.85;4.70;;;13.30;79.40;;;;;;10945826;32;20352;-71
2023/04/09 03:40:10;;;;;;;3.55;2.97;;;13.30;79.50;;;;;;10946033;32;20310;-71
2023/04/09 03:46:14;;;;;;;5.90;3.92;;;13.20;80.20;;;;;;10944035;32;20356;-71
2023/04/09 03:52:17;;;;;;;5.90;4.10;;;13.00;80.10;;;;;;10941288;32;20057;-71
2023/04/09 03:58:20;;;;;;;5.12;3.72;;;13.00;80.60;;;;;;10944760;32;20093;-71
2023/04/09 04:04:22;;;;;;;3.95;2.72;;;12.90;80.50;;;;;;10944615;32;20015;-70
2023/04/09 04:10:25;;;;;;;3.62;2.90;;;12.90;80.80;;;;;;10943771;32;20045;-71
2023/04/09 04:16:27;;;;;;;3.15;2.37;;;13.00;80.90;;;;;;10931375;32;20049;-71
2023/04/09 04:22:30;;;;;;;5.30;3.60;;;13.00;80.90;;;;;;10943471;32;20027;-71
2023/04/09 04:28:33;;;;;;;5.50;3.67;;;13.00;80.40;;;;;;10943839;32;20385;-71
2023/04/09 04:34:36;;;;;;;3.47;2.65;;;12.80;80.80;;;;;;10943532;32;20503;-72
2023/04/09 04:40:40;;;;;;;3.67;2.67;;;12.80;80.90;;;;;;10943835;32;20415;-71
2023/04/09 04:46:42;;;;;;;2.87;2.12;;;12.90;80.90;;;;;;10942671;32;20023;-71
2023/04/09 04:52:45;;;;;;;3.28;2.25;;;12.90;80.90;;;;;;10942483;32;20058;-71
2023/04/09 04:58:48;;;;;;;2.10;1.83;;;12.90;80.90;;;;;;10941214;32;20027;-71
2023/04/09 05:04:51;;;;;;;2.30;1.73;;;12.90;81.20;;;;;;10941875;32;20026;-70
2023/04/09 05:10:55;;;;;;;2.92;2.10;;;13.00;81.30;;;;;;10941841;32;20512;-71
2023/04/09 05:16:58;;;;;;;3.37;2.30;;;13.00;81.10;;;;;;10942132;32;20023;-71
2023/04/09 05:23:02;;;;;;;3.05;2.20;;;12.90;81.20;;;;;;10941501;32;20337;-71
2023/04/09 05:29:05;;;;;;;4.75;3.37;;;13.00;81.10;;;;;;10941414;32;20018;-70
2023/04/09 05:35:08;;;;;;;3.12;2.70;;;13.00;81.00;;;;;;10942558;32;20392;-71
2023/04/09 05:41:13;;;;;;;3.33;2.12;;;13.00;81.20;;;;;;10941191;32;20409;-70
2023/04/09 05:47:20;;;;;;;1.92;1.67;;;12.90;81.50;;;;;;10924539;32;20019;-70
2023/04/09 05:53:23;;;;;;;3.70;2.33;;;12.90;81.70;;;;;;10922703;32;20038;-74
2023/04/09 05:59:26;;;;;;;2.95;2.10;;;12.80;81.60;;;;;;10928227;32;20055;-74
2023/04/09 06:05:28;;;;;;;4.12;2.67;;;12.80;81.70;;;;;;10942905;32;20019;-75
2023/04/09 06:11:32;;;;;;;2.40;1.90;;;12.60;81.60;;;;;;10947764;32;20337;-70
2023/04/09 06:17:35;;;;;;;2.60;1.55;;;12.70;82.00;;;;;;10947375;32;20023;-70
2023/04/09 06:23:37;;;;;;;2.28;1.80;;;12.80;81.90;;;;;;10933317;32;20448;-71
2023/04/09 06:29:40;;;;;;;2.53;2.00;;;12.90;81.70;;;;;;10948333;32;20038;-70
2023/04/09 06:35:42;;;;;;;1.92;1.67;;;13.00;81.60;;;;;;10946835;32;20348;-71
2023/04/09 06:41:54;;;;;;;2.50;1.95;;;13.00;81.60;;;;;;10947985;32;20349;-71
2023/04/09 06:48:07;;;;;;;2.83;1.90;;;13.00;81.60;;;;;;10932594;32;20034;-71
2023/04/09 06:54:09;;;;;;;2.58;2.25;;;13.10;81.40;;;;;;10932978;32;20057;-71
2023/04/09 07:00:12;;;;;;;2.53;2.00;;;13.10;81.50;;;;;;10947210;32;20388;-70
2023/04/09 07:06:14;;;;;;;2.37;1.75;;;13.20;81.30;;;;;;10947131;32;20029;-72
2023/04/09 07:12:46;;;;;;;2.17;1.50;;;13.20;81.00;;;;;;10933661;32;20046;-71
2023/04/09 07:18:57;;;;;;;2.10;1.83;;;13.20;80.60;;;;;;10829397;32;20062;-71
2023/04/09 07:25:03;;;;;;;2.33;1.85;;;13.20;80.80;;;;;;10829948;32;20426;-71
2023/04/09 07:31:05;;;;;;;2.75;2.25;;;13.30;80.40;;;;;;10829905;32;20032;-70
2023/04/09 07:37:07;;;;;;;3.35;2.75;;;13.40;80.20;;;;;;10829336;32;20040;-71
2023/04/09 07:43:10;;;;;;;2.25;1.92;;;13.30;79.40;;;;;;10830353;32;20067;-71
2023/04/09 07:49:32;;;;;;;2.35;1.77;;;13.40;79.30;;;;;;10830171;32;20362;-71
2023/04/09 07:55:34;;;;;;;3.30;1.95;;;13.50;79.30;;;;;;10961362;32;20030;-70
2023/04/09 08:01:36;;;;;;;3.80;2.40;;;13.60;78.40;;;;;;10982246;32;20077;-71
2023/04/09 08:07:39;;;;;;;4.10;2.78;;;13.60;76.50;;;;;;10982859;32;20015;-71
2023/04/09 08:13:41;;;;;;;4.32;2.62;;;13.50;76.30;;;;;;10982582;32;20041;-70
2023/04/09 08:19:44;;;;;;;2.80;2.17;;;13.50;75.40;;;;;;10982388;32;20049;-71
2023/04/09 08:25:46;;;;;;;5.18;3.03;;;13.40;75.10;;;;;;10980994;32;20050;-70
2023/04/09 08:31:49;;;;;;;2.65;2.45;;;13.50;74.80;;;;;;10966530;32;20427;-71
2023/04/09 08:37:52;;;;;;;2.60;2.35;;;13.40;73.70;;;;;;10968390;32;20022;-70
2023/04/09 08:43:54;;;;;;;2.78;1.90;;;13.50;74.00;;;;;;10981322;32;20037;-71
2023/04/09 08:49:56;;;;;;;4.45;2.28;;;13.70;74.90;;;;;;10962153;32;20053;-70
2023/04/09 08:55:59;;;;;;;2.17;1.95;;;13.70;73.60;;;;;;10979232;32;20352;-71
2023/04/09 09:02:10;;;;;;;3.67;2.53;;;13.70;72.80;;;;;;10980945;32;20014;-70
2023/04/09 09:08:25;;;;;;;3.78;2.17;;;13.80;72.00;;;;;;10979325;32;20045;-74
2023/04/09 09:14:31;;;;;;;2.67;2.30;;;13.80;71.50;;;;;;10967837;32;20080;-74
2023/04/09 09:20:34;;;;;;;3.78;2.65;;;14.00;71.80;;;;;;10964526;32;20027;-71
2023/04/09 09:26:37;;;;;;;3.25;2.40;;;14.10;71.00;;;;;;10979557;32;20041;-71
2023/04/09 09:32:39;;;;;;;2.17;1.87;;;14.20;70.70;;;;;;10976038;32;20019;-71
2023/04/09 09:38:53;;;;;;;2.85;2.25;;;14.30;70.60;;;;;;10965191;32;20211;-71
2023/04/09 09:44:55;;;;;;;4.28;3.42;;;14.50;70.70;;;;;;10987135;32;20029;-70
2023/04/09 09:50:58;;;;;;;3.25;2.75;;;14.60;70.80;;;;;;10986559;32;20049;-70
2023/04/09 09:57:06;;;;;;;2.78;2.20;;;14.60;69.60;;;;;;10958562;32;20027;-71
2023/04/09 10:03:14;;;;;;;1.62;1.50;;;14.70;70.50;;;;;;10965267;32;20337;-71
2023/04/09 10:09:18;;;;;;;5.33;3.57;;;14.90;70.00;;;;;;10986992;32;20037;-71
2023/04/09 10:15:20;;;;;;;2.87;2.58;;;15.20;69.70;;;;;;10986187;32;20114;-71
2023/04/09 10:21:36;;;;;;;5.70;2.60;;;15.20;69.40;;;;;;10986179;32;20022;-71
2023/04/09 10:27:38;;;;;;;2.83;2.05;;;15.30;67.20;;;;;;10972879;32;20045;-71
2023/04/09 10:33:43;;;;;;;5.20;3.40;;;15.70;66.70;;;;;;10986243;32;20308;-75
2023/04/09 10:39:46;;;;;;;2.87;2.10;;;15.90;67.40;;;;;;10986083;32;20022;-75
2023/04/09 10:45:53;;;;;;;2.30;1.90;;;16.10;68.10;;;;;;10986002;32;20052;-75
2023/04/09 10:52:03;;;;;;;1.92;1.60;;;16.40;65.90;;;;;;10984790;32;20022;-74
2023/04/09 10:58:07;;;;;;;2.25;1.83;;;16.40;64.30;;;;;;10983004;32;20372;-74
2023/04/09 11:04:18;;;;;;;4.05;2.65;;;16.50;64.10;;;;;;10970167;32;20053;-71
2023/04/09 11:10:21;;;;;;;2.30;1.52;;;16.50;63.20;;;;;;10984971;32;20321;-70
2023/04/09 11:16:23;;;;;;;3.22;1.98;;;16.20;63.40;;;;;;10984837;32;20312;-71
2023/04/09 11:22:27;;;;;;;2.95;2.22;;;16.20;63.90;;;;;;10971211;32;20396;-71
2023/04/09 11:28:29;;;;;;;2.35;1.85;;;16.20;63.70;;;;;;10984325;32;20006;-71
2023/04/09 11:34:31;;;;;;;2.35;1.70;;;16.30;62.80;;;;;;10984197;32;20041;-71
2023/04/09 11:40:34;;;;;;;3.42;2.10;;;16.40;62.90;;;;;;10984001;32;20419;-70
2023/04/09 11:46:37;;;;;;;6.32;4.20;;;16.60;62.80;;;;;;10983759;32;20045;-70
2023/04/09 11:52:40;;;;;;;3.10;2.10;;;16.80;62.90;;;;;;10979035;32;20352;-71
2023/04/09 11:58:46;;;;;;;2.92;2.37;;;17.00;61.60;;;;;;10980350;32;20172;-71
2023/04/09 12:04:50;;;;;;;4.07;2.17;;;17.50;60.30;;;;;;10982113;32;20041;-71
2023/04/09 12:10:53;;;;;;;1.85;1.67;;;17.70;59.20;;;;;;10983502;32;20339;-70
2023/04/09 12:16:55;;;;;;;3.22;2.17;;;17.50;60.10;;;;;;10968502;32;20023;-70
2023/04/09 12:23:00;;;;;;;3.00;2.05;;;17.20;60.60;;;;;;10981789;32;20168;-70
2023/04/09 12:29:02;;;;;;;4.05;3.17;;;17.30;61.40;;;;;;10982965;32;20409;-70
2023/04/09 12:35:04;;;;;;;8.23;4.60;;;17.50;61.10;;;;;;10981261;32;20083;-70
2023/04/09 12:41:06;;;;;;;4.95;3.87;;;17.20;61.90;;;;;;10981141;32;20018;-70
2023/04/09 12:47:09;;;;;;;4.60;2.97;;;16.70;62.00;;;;;;10981576;32;20034;-70
2023/04/09 12:53:11;;;;;;;4.28;3.10;;;16.30;63.00;;;;;;10980695;32;20172;-70
2023/04/09 12:59:13;;;;;;;4.90;3.00;;;15.90;64.10;;;;;;10981137;32;20023;-70
2023/04/09 13:05:15;;;;;;;5.22;3.75;;;15.70;65.20;;;;;;10975724;32;20015;-70
2023/04/09 13:11:18;;;;;;;4.72;3.30;;;15.60;65.60;;;;;;10980789;32;20046;-71
2023/04/09 13:17:20;;;;;;;4.57;2.72;;;15.60;65.50;;;;;;10966514;32;20026;-70
2023/04/09 13:23:23;;;;;;;4.28;2.95;;;15.80;65.30;;;;;;10976599;32;20396;-70
2023/04/09 13:29:28;;;;;;;3.08;1.98;;;16.00;65.20;;;;;;10979874;32;20053;-70
2023/04/09 13:35:30;;;;;;;3.17;1.92;;;16.30;64.00;;;;;;10976532;32;20034;-70
2023/04/09 13:41:33;;;;;;;2.30;1.73;;;16.50;63.10;;;;;;10979512;32;20056;-70
2023/04/09 13:47:35;;;;;;;4.18;2.67;;;16.80;62.50;;;;;;10979933;32;20026;-70
2023/04/09 13:53:37;;;;;;;3.35;1.85;;;17.00;61.90;;;;;;10979029;32;20045;-70
2023/04/09 13:59:41;;;;;;;2.70;1.85;;;17.00;61.20;;;;;;10979153;32;20027;-70
2023/04/09 14:05:44;;;;;;;5.85;3.05;;;17.00;61.20;;;;;;10979823;32;20045;-70
2023/04/09 14:11:47;;;;;;;4.57;2.90;;;17.20;60.90;;;;;;10979493;32;20045;-69
2023/04/09 14:17:49;;;;;;;3.15;2.05;;;16.90;61.10;;;;;;10979504;32;20019;-70
2023/04/09 14:23:51;;;;;;;3.40;1.95;;;16.70;61.50;;;;;;10951488;32;20435;-70
2023/04/09 14:29:54;;;;;;;2.37;2.05;;;16.60;61.60;;;;;;10983948;32;20014;-70
2023/04/09 14:35:57;;;;;;;3.25;2.33;;;16.60;61.30;;;;;;10986073;32;20049;-70
2023/04/09 14:41:59;;;;;;;3.97;2.90;;;16.50;61.50;;;;;;10985702;32;20057;-70
2023/04/09 14:48:02;;;;;;;2.40;1.98;;;16.30;61.90;;;;;;10985495;32;20030;-70
2023/04/09 14:54:04;;;;;;;5.55;2.40;;;16.20;62.10;;;;;;10971051;32;20026;-70
2023/04/09 15:00:09;;;;;;;3.17;2.12;;;16.20;62.10;;;;;;10985317;32;20023;-70
2023/04/09 15:06:11;;;;;;;5.53;2.58;;;16.20;62.30;;;;;;10985152;32;20392;-70
2023/04/09 15:12:13;;;;;;;2.80;2.22;;;16.20;61.70;;;;;;10984510;32;20325;-70
2023/04/09 15:18:16;;;;;;;3.72;2.67;;;16.10;61.70;;;;;;10969590;32;20030;-70
2023/04/09 15:24:18;;;;;;;2.75;1.95;;;16.20;62.00;;;;;;10984367;32;20057;-70
2023/04/09 15:30:21;;;;;;;4.12;2.70;;;16.30;61.60;;;;;;10969362;32;20030;-70
2023/04/09 15:36:23;;;;;;;4.90;3.35;;;16.20;60.90;;;;;;10983184;32;20306;-70
2023/04/09 15:42:25;;;;;;;3.00;2.25;;;16.20;61.10;;;;;;10982129;32;20018;-70
2023/04/09 15:48:28;;;;;;;3.17;2.42;;;15.90;61.90;;;;;;10964652;32;20427;-70
2023/04/09 15:54:37;;;;;;;2.67;2.42;;;15.70;61.10;;;;;;10665150;27;7140882;-70
2023/04/09 16:00:40;;;;;;;3.28;2.55;;;15.60;61.70;;;;;;10870155;32;20019;-70
2023/04/09 16:06:43;;;;;;;2.47;2.05;;;15.50;61.20;;;;;;10855001;32;20057;-70
2023/04/09 16:12:46;;;;;;;3.70;2.10;;;15.40;61.70;;;;;;10868262;32;20031;-70
2023/04/09 16:18:48;;;;;;;4.18;3.12;;;15.40;61.90;;;;;;10867723;32;20024;-70
2023/04/09 16:24:51;;;;;;;2.65;2.03;;;15.40;62.30;;;;;;10852212;32;20027;-69
2023/04/09 16:30:54;;;;;;;2.85;2.28;;;15.40;62.70;;;;;;10867567;32;20038;-70
2023/04/09 16:36:57;;;;;;;2.85;2.12;;;15.50;62.10;;;;;;10866815;32;20081;-70
2023/04/09 16:43:00;;;;;;;6.72;2.40;;;15.40;61.80;;;;;;10853304;32;20027;-69
2023/04/09 16:49:04;;;;;;;2.47;2.00;;;15.30;62.50;;;;;;10815802;32;20330;-70
2023/04/09 16:55:07;;;;;;;13.68;2.65;;;15.30;62.70;;;;;;10828529;32;20023;-69
2023/04/09 17:01:12;;;;;;;2.20;1.90;;;15.30;63.10;;;;;;10828786;32;20046;-69
2023/04/09 17:07:16;;;;;;;4.45;2.35;;;15.50;63.90;;;;;;10829579;32;20045;-69
2023/04/09 17:13:20;;;;;;;4.45;1.40;;;15.40;64.60;;;;;;10836925;32;20054;-69
2023/04/09 17:19:22;;;;;;;3.30;2.45;;;15.40;65.40;;;;;;10840843;32;20046;-69
2023/04/09 17:25:25;;;;;;;1.92;1.60;;;15.30;66.00;;;;;;10826655;32;20358;-69
2023/04/09 17:31:31;;;;;;;5.18;3.40;;;15.30;66.80;;;;;;10827839;32;20024;-70
2023/04/09 17:37:34;;;;;;;3.30;2.50;;;15.20;67.60;;;;;;10861782;32;20058;-69
2023/04/09 17:43:36;;;;;;;2.85;1.52;;;15.20;68.30;;;;;;10860600;32;20054;-70
2023/04/09 17:49:38;;;;;;;2.72;1.62;;;15.10;68.70;;;;;;10867519;32;20040;-69
2023/04/09 17:55:49;;;;;;;1.95;1.58;;;15.00;68.90;;;;;;10868181;32;20329;-70
2023/04/09 18:01:53;;;;;;;2.80;1.90;;;15.00;69.20;;;;;;10869052;32;20428;-69
2023/04/09 18:07:55;;;;;;;4.60;2.28;;;14.90;69.70;;;;;;10874722;32;20381;-69
2023/04/09 18:13:58;;;;;;;3.87;2.53;;;14.80;70.80;;;;;;10872070;32;20059;-70
2023/04/09 18:20:00;;;;;;;3.08;2.20;;;14.70;71.60;;;;;;10872185;32;20042;-69
2023/04/09 18:26:02;;;;;;;4.57;2.75;;;14.70;71.90;;;;;;10873293;32;20024;-70
2023/04/09 18:32:05;;;;;;;4.53;3.03;;;14.60;72.00;;;;;;10873723;32;20062;-69
2023/04/09 18:38:07;;;;;;;4.15;2.80;;;14.50;72.30;;;;;;10872510;32;20027;-70
2023/04/09 18:44:09;;;;;;;5.60;4.05;;;14.40;72.80;;;;;;10873919;32;20047;-70
2023/04/09 18:50:16;;;;;;;4.53;3.05;;;14.50;73.00;;;;;;10858221;32;20040;-70
2023/04/09 18:56:23;;;;;;;5.55;3.70;;;14.50;72.90;;;;;;10872777;32;20079;-70
2023/04/09 19:02:25;;;;;;;5.68;4.40;;;14.40;73.10;;;;;;10872675;32;20015;-70
2023/04/09 19:08:33;;;;;;;5.85;3.62;;;14.30;73.00;;;;;;10855117;32;20063;-69
2023/04/09 19:14:35;;;;;;;7.10;3.42;;;14.20;73.40;;;;;;10858220;32;20063;-70
2023/04/09 19:20:37;;;;;;;7.00;4.55;;;14.20;73.30;;;;;;10872110;32;20546;-70
2023/04/09 19:26:40;;;;;;;5.22;3.10;;;14.20;73.30;;;;;;10871847;32;20420;-69
2023/04/09 19:32:44;;;;;;;7.80;4.00;;;14.20;73.40;;;;;;10871756;32;20050;-69
2023/04/09 19:38:47;;;;;;;6.80;4.40;;;14.10;73.70;;;;;;10870337;32;20020;-70
2023/04/09 19:44:49;;;;;;;5.32;4.07;;;14.10;73.90;;;;;;10856524;32;20035;-70
2023/04/09 19:50:51;;;;;;;7.05;3.90;;;14.10;74.10;;;;;;10857752;32;20429;-69
2023/04/09 19:56:54;;;;;;;5.72;3.80;;;14.00;74.20;;;;;;10870683;32;20012;-74
2023/04/09 20:02:57;;;;;;;5.18;4.00;;;14.00;74.40;;;;;;10870513;32;20020;-74
2023/04/09 20:09:00;;;;;;;6.68;4.45;;;14.00;74.30;;;;;;10870513;32;20314;-74
2023/04/09 20:15:02;;;;;;;4.80;2.85;;;14.00;74.40;;;;;;10856247;32;20046;-74
2023/04/09 20:21:06;;;;;;;3.40;2.65;;;14.00;74.60;;;;;;10869986;32;20042;-74
2023/04/09 20:27:08;;;;;;;4.18;3.10;;;14.00;74.90;;;;;;10868695;32;20097;-74
2023/04/09 20:33:10;;;;;;;4.75;3.15;;;13.90;74.90;;;;;;10868755;32;20386;-74
2023/04/09 20:39:13;;;;;;;4.68;2.83;;;13.80;75.00;;;;;;10869213;32;20015;-74
2023/04/09 20:45:15;;;;;;;4.32;2.17;;;13.80;75.10;;;;;;10869041;32;20416;-74
2023/04/09 20:51:20;;;;;;;3.95;2.75;;;13.80;75.20;;;;;;10868117;32;20028;-74
2023/04/09 20:57:22;;;;;;;4.03;2.80;;;13.80;75.40;;;;;;10867288;32;20023;-69
2023/04/09 21:03:25;;;;;;;9.68;3.95;;;13.80;75.50;;;;;;10855207;32;20019;-69
2023/04/09 21:09:27;;;;;;;3.65;2.33;;;13.90;75.40;;;;;;10868351;32;20042;-74
2023/04/09 21:15:30;;;;;;;4.12;2.17;;;13.80;75.40;;;;;;10868145;32;20016;-74
2023/04/09 21:21:36;;;;;;;3.47;2.50;;;13.80;75.50;;;;;;10865128;32;20019;-74
2023/04/09 21:27:38;;;;;;;4.10;2.08;;;13.80;75.60;;;;;;10867272;32;20047;-74
2023/04/09 21:33:40;;;;;;;3.87;2.65;;;13.80;75.60;;;;;;10841280;32;20042;-74
2023/04/09 21:39:42;;;;;;;3.20;2.25;;;13.70;75.70;;;;;;10866361;32;20012;-74
2023/04/09 21:45:44;;;;;;;4.37;2.75;;;13.70;75.60;;;;;;10866423;32;20045;-75
2023/04/09 21:51:46;;;;;;;2.40;1.98;;;13.70;75.70;;;;;;10866277;32;20046;-74
2023/04/09 21:57:51;;;;;;;7.35;1.98;;;13.50;75.10;;;;;;10866770;32;20349;-74
2023/04/09 22:03:53;;;;;;;2.37;1.90;;;13.50;75.30;;;;;;10866470;32;20050;-74
2023/04/09 22:09:58;;;;;;;2.25;1.77;;;13.40;75.40;;;;;;10866665;32;20019;-74
2023/04/09 22:16:00;;;;;;;1.50;1.40;;;13.50;75.70;;;;;;10866996;32;20309;-74
2023/04/09 22:22:02;;;;;;;2.17;1.73;;;13.50;75.80;;;;;;10866954;32;20280;-74
2023/04/09 22:28:04;;;;;;;2.67;1.75;;;13.50;76.00;;;;;;10865134;32;20299;-74
2023/04/09 22:34:08;;;;;;;1.75;1.52;;;13.50;75.80;;;;;;10866526;32;20007;-74
2023/04/09 22:40:13;;;;;;;3.03;1.80;;;13.50;76.10;;;;;;10863902;32;20042;-74
2023/04/09 22:46:15;;;;;;;2.65;1.87;;;13.50;76.40;;;;;;10857892;32;20021;-74
2023/04/09 22:52:17;;;;;;;2.92;2.17;;;13.30;76.70;;;;;;10834943;32;20024;-74
2023/04/09 22:58:19;;;;;;;3.22;2.28;;;13.30;77.10;;;;;;10835039;32;20016;-74
2023/04/09 23:04:24;;;;;;;2.05;1.40;;;13.20;77.10;;;;;;10834965;32;20020;-74
2023/04/09 23:10:26;;;;;;;2.37;1.42;;;13.10;77.50;;;;;;10835444;32;20008;-74
2023/04/09 23:16:28;;;;;;;2.60;1.77;;;13.00;77.50;;;;;;10834389;32;20036;-74
2023/04/09 23:22:30;;;;;;;2.42;1.40;;;13.00;77.50;;;;;;10834947;32;20042;-74
2023/04/09 23:28:32;;;;;;;2.80;1.90;;;13.00;77.30;;;;;;10834791;32;20050;-74
2023/04/09 23:34:35;;;;;;;1.17;0.82;;;13.00;77.30;;;;;;10828468;32;20021;-74
2023/04/09 23:40:37;;;;;;;1.87;1.27;;;12.90;77.20;;;;;;10830939;32;20343;-74
2023/04/09 23:46:38;;;;;;;1.80;1.70;;;12.90;77.30;;;;;;10834772;32;20074;-74
2023/04/09 23:52:46;;;;;;;2.20;1.45;;;12.80;77.10;;;;;;10918527;27;20301;-74
2023/04/09 23:58:48;;;;;;;2.65;1.77;;;12.70;77.10;;;;;;10982855;32;20031;-75
